Time;durP1;ratioP1;P1;durP2;ratioP2;P2;SDS_P1;SDS_P2;PMS_P1;PMS_P2;Temp;Humidity;BMP_temperature;BMP_pressure;BME280_temperature;BME280_humidity;BME280_pressure;Samples;Min_cycle;Max_cycle;Signal;HPM_P1;HPM_P2
2024/01/02 00:01:53;;;;;;;1.48;0.60;;;17.10;46.30;;;;;;5148727;27;45317;-65
2024/01/02 00:04:21;;;;;;;0.25;0.22;;;17.10;46.40;;;;;;5148246;27;45355;-65
2024/01/02 00:06:48;;;;;;;0.40;0.40;;;17.10;46.40;;;;;;5148284;27;46717;-64
2024/01/02 00:09:16;;;;;;;0.32;0.32;;;17.00;46.40;;;;;;5148448;27;45265;-64
2024/01/02 00:11:42;;;;;;;0.30;0.30;;;17.00;46.40;;;;;;5148400;27;45320;-62
2024/01/02 00:14:09;;;;;;;0.40;0.20;;;17.00;46.40;;;;;;5165857;27;45524;-64
2024/01/02 00:16:36;;;;;;;1.30;0.40;;;17.00;46.40;;;;;;5168979;27;45354;-64
2024/01/02 00:19:04;;;;;;;0.80;0.40;;;17.00;46.50;;;;;;5169376;27;45230;-64
2024/01/02 00:21:31;;;;;;;0.40;0.40;;;17.00;46.50;;;;;;5169312;27;45267;-64
2024/01/02 00:23:59;;;;;;;0.55;0.38;;;16.90;46.50;;;;;;5150826;27;45286;-65
2024/01/02 00:26:25;;;;;;;0.82;0.40;;;16.90;46.50;;;;;;5147854;27;45728;-63
2024/01/02 00:28:52;;;;;;;1.50;0.50;;;16.90;46.60;;;;;;5148058;27;45309;-63
2024/01/02 00:31:19;;;;;;;0.20;0.20;;;16.90;46.60;;;;;;5148177;27;45441;-63
2024/01/02 00:33:46;;;;;;;0.40;0.40;;;16.90;46.60;;;;;;5148245;27;45205;-62
2024/01/02 00:36:15;;;;;;;0.30;0.30;;;16.90;46.70;;;;;;5147764;27;46240;-62
2024/01/02 00:38:41;;;;;;;0.10;0.10;;;16.90;46.70;;;;;;5147716;27;45445;-63
2024/01/02 00:41:09;;;;;;;0.30;0.30;;;16.90;46.70;;;;;;5147594;27;45333;-63
2024/01/02 00:43:35;;;;;;;0.28;0.28;;;16.90;46.70;;;;;;5148040;27;45429;-63
2024/01/02 00:46:02;;;;;;;0.73;0.45;;;16.80;46.70;;;;;;5147445;27;46401;-62
2024/01/02 00:48:29;;;;;;;0.28;0.28;;;16.80;46.70;;;;;;5147452;27;45284;-66
2024/01/02 00:50:56;;;;;;;0.30;0.30;;;16.80;46.70;;;;;;5147852;27;45321;-63
2024/01/02 00:53:24;;;;;;;0.20;0.20;;;16.80;46.60;;;;;;5148037;27;45527;-64
2024/01/02 00:55:51;;;;;;;0.20;0.20;;;16.80;46.70;;;;;;5147591;27;46374;-65
2024/01/02 00:58:18;;;;;;;0.32;0.30;;;16.80;46.70;;;;;;5147828;27;45273;-63
2024/01/02 01:00:45;;;;;;;0.20;0.20;;;16.70;46.70;;;;;;5147576;27;45402;-62
2024/01/02 01:03:13;;;;;;;0.30;0.20;;;16.80;46.70;;;;;;5147985;27;45438;-63
2024/01/02 01:05:40;;;;;;;0.20;0.20;;;16.70;46.70;;;;;;5147537;27;46530;-63
2024/01/02 01:08:07;;;;;;;0.40;0.30;;;16.70;46.70;;;;;;5147434;27;45383;-63
2024/01/02 01:10:35;;;;;;;0.25;0.25;;;16.70;46.70;;;;;;5145039;27;45276;-62
2024/01/02 01:13:02;;;;;;;0.22;0.22;;;16.70;46.70;;;;;;5155652;27;45548;-65
2024/01/02 01:15:29;;;;;;;0.20;0.20;;;16.70;46.80;;;;;;5169634;27;46353;-62
2024/01/02 01:17:55;;;;;;;1.00;0.28;;;16.70;46.70;;;;;;5172359;27;45316;-65
2024/01/02 01:20:22;;;;;;;0.17;0.17;;;16.70;46.80;;;;;;5172222;27;45305;-63
2024/01/02 01:22:49;;;;;;;0.25;0.25;;;16.70;46.80;;;;;;5163763;27;45268;-63
2024/01/02 01:25:16;;;;;;;0.32;0.30;;;16.70;46.80;;;;;;5150913;27;46488;-63
2024/01/02 01:27:44;;;;;;;0.30;0.30;;;16.60;46.80;;;;;;5150706;27;45439;-63
2024/01/02 01:30:11;;;;;;;0.20;0.20;;;16.70;46.80;;;;;;5150964;27;45259;-63
2024/01/02 01:32:38;;;;;;;0.25;0.25;;;16.60;46.70;;;;;;5151010;27;45284;-64
2024/01/02 01:35:07;;;;;;;0.28;0.28;;;16.60;46.70;;;;;;5151067;27;46693;-63
2024/01/02 01:37:34;;;;;;;0.60;0.38;;;16.60;46.80;;;;;;5151045;27;45365;-63
2024/01/02 01:40:00;;;;;;;0.22;0.22;;;16.60;46.70;;;;;;5143992;27;45240;-63
2024/01/02 01:42:28;;;;;;;0.22;0.20;;;16.60;46.80;;;;;;5130704;27;45376;-63
2024/01/02 01:44:56;;;;;;;0.30;0.30;;;16.60;46.80;;;;;;5130088;27;45284;-63
2024/01/02 01:47:23;;;;;;;0.57;0.28;;;16.60;46.80;;;;;;5129546;27;45522;-63
2024/01/02 01:49:50;;;;;;;0.40;0.40;;;16.60;46.80;;;;;;5129878;27;45410;-63
2024/01/02 01:52:16;;;;;;;0.30;0.30;;;16.60;46.80;;;;;;5130014;27;45126;-63
2024/01/02 01:54:43;;;;;;;0.43;0.40;;;16.60;46.80;;;;;;5129568;27;45252;-63
2024/01/02 01:57:10;;;;;;;0.68;0.30;;;16.50;46.80;;;;;;5130177;27;45349;-63
2024/01/02 01:59:37;;;;;;;0.52;0.25;;;16.50;46.80;;;;;;5129754;27;45337;-65
2024/01/02 02:02:05;;;;;;;0.63;0.28;;;16.50;46.80;;;;;;5130043;27;45425;-63
2024/01/02 02:04:33;;;;;;;0.93;0.28;;;16.50;46.80;;;;;;5129285;27;46977;-64
2024/01/02 02:07:00;;;;;;;0.10;0.10;;;16.50;46.90;;;;;;5129273;27;45728;-64
2024/01/02 02:09:26;;;;;;;0.20;0.20;;;16.50;46.90;;;;;;5129547;27;45406;-65
2024/01/02 02:11:53;;;;;;;0.28;0.17;;;16.50;46.90;;;;;;5129482;27;45395;-63
2024/01/02 02:14:20;;;;;;;0.20;0.20;;;16.50;46.90;;;;;;5129017;27;46693;-64
2024/01/02 02:16:47;;;;;;;0.20;0.20;;;16.50;46.90;;;;;;5129408;27;45318;-63
2024/01/02 02:19:16;;;;;;;1.08;0.30;;;16.50;46.90;;;;;;5129418;27;45292;-63
2024/01/02 02:21:43;;;;;;;0.63;0.30;;;16.40;46.90;;;;;;5129432;27;45530;-63
2024/01/02 02:24:11;;;;;;;0.45;0.10;;;16.40;46.80;;;;;;5129186;27;46713;-63
2024/01/02 02:26:38;;;;;;;0.22;0.22;;;16.40;46.80;;;;;;5129118;27;45261;-62
2024/01/02 02:29:05;;;;;;;0.10;0.10;;;16.40;46.80;;;;;;5129304;27;45315;-62
2024/01/02 02:31:32;;;;;;;0.32;0.30;;;16.40;46.80;;;;;;5129522;27;45397;-63
2024/01/02 02:33:59;;;;;;;0.20;0.20;;;16.40;46.80;;;;;;5128936;27;46550;-63
2024/01/02 02:36:26;;;;;;;0.25;0.25;;;16.40;46.90;;;;;;5129237;27;45298;-63
2024/01/02 02:38:53;;;;;;;0.28;0.28;;;16.40;46.90;;;;;;5129103;27;45277;-63
2024/01/02 02:41:21;;;;;;;0.55;0.30;;;16.40;46.90;;;;;;5129033;27;45466;-62
2024/01/02 02:43:48;;;;;;;0.30;0.15;;;16.40;46.90;;;;;;5129154;27;47303;-63
2024/01/02 02:46:15;;;;;;;0.40;0.30;;;16.30;46.90;;;;;;5129063;27;45376;-63
2024/01/02 02:48:41;;;;;;;0.45;0.30;;;16.30;46.80;;;;;;5129159;27;45327;-64
2024/01/02 02:51:08;;;;;;;0.25;0.20;;;16.30;46.80;;;;;;5129486;27;45235;-63
2024/01/02 02:53:35;;;;;;;0.70;0.30;;;16.40;46.90;;;;;;5128470;27;46929;-63
2024/01/02 02:56:03;;;;;;;0.55;0.40;;;16.40;46.90;;;;;;5128660;27;45218;-63
2024/01/02 02:58:31;;;;;;;0.22;0.22;;;16.40;46.90;;;;;;5128715;27;45457;-63
2024/01/02 03:00:58;;;;;;;0.20;0.20;;;16.30;46.90;;;;;;5129133;27;45297;-62
2024/01/02 03:03:25;;;;;;;0.70;0.10;;;16.30;46.90;;;;;;5128996;27;45620;-62
2024/01/02 03:05:52;;;;;;;0.85;0.30;;;16.30;46.90;;;;;;5128386;27;45406;-65
2024/01/02 03:08:19;;;;;;;0.40;0.40;;;16.30;47.00;;;;;;5129199;27;45380;-62
2024/01/02 03:10:49;;;;;;;0.20;0.10;;;16.30;47.00;;;;;;5128810;27;45392;-63
2024/01/02 03:13:16;;;;;;;0.00;0.00;;;16.30;47.00;;;;;;5128304;27;45200;-63
2024/01/02 03:15:44;;;;;;;0.20;0.20;;;16.30;47.00;;;;;;5128309;27;45318;-62
2024/01/02 03:18:11;;;;;;;0.10;0.10;;;16.30;47.00;;;;;;5128555;27;45394;-64
2024/01/02 03:20:38;;;;;;;0.30;0.30;;;16.30;47.00;;;;;;5128665;27;45466;-64
2024/01/02 03:23:05;;;;;;;0.20;0.20;;;16.30;47.00;;;;;;5139082;27;45236;-64
2024/01/02 03:25:31;;;;;;;0.32;0.20;;;16.20;47.00;;;;;;5149372;27;45490;-65
2024/01/02 03:27:58;;;;;;;0.10;0.10;;;16.30;47.00;;;;;;5149372;27;45432;-63
2024/01/02 03:30:25;;;;;;;0.10;0.10;;;16.30;47.10;;;;;;5149514;27;45482;-63
2024/01/02 03:32:53;;;;;;;0.10;0.10;;;16.30;47.10;;;;;;5149010;27;45565;-64
2024/01/02 03:35:20;;;;;;;0.28;0.22;;;16.20;47.00;;;;;;5148969;27;45336;-64
2024/01/02 03:37:47;;;;;;;0.35;0.20;;;16.20;47.10;;;;;;5147879;27;45365;-63
2024/01/02 03:40:14;;;;;;;0.20;0.20;;;16.20;47.00;;;;;;5149022;27;45456;-62
2024/01/02 03:42:41;;;;;;;0.10;0.10;;;16.20;47.10;;;;;;5148939;27;46575;-63
2024/01/02 03:45:09;;;;;;;0.10;0.10;;;16.20;47.20;;;;;;5149084;27;45263;-62
2024/01/02 03:47:36;;;;;;;0.00;0.00;;;16.20;47.20;;;;;;5149146;27;45297;-62
2024/01/02 03:50:05;;;;;;;0.00;0.00;;;16.20;47.20;;;;;;5149140;27;45394;-63
2024/01/02 03:52:32;;;;;;;0.13;0.13;;;16.20;47.20;;;;;;5148715;27;46645;-62
2024/01/02 03:54:59;;;;;;;0.22;0.20;;;16.20;47.20;;;;;;5148721;27;45187;-63
2024/01/02 03:57:26;;;;;;;0.10;0.10;;;16.20;47.20;;;;;;5148947;27;45339;-63
2024/01/02 03:59:53;;;;;;;0.65;0.25;;;16.20;47.20;;;;;;5148767;27;45406;-62
2024/01/02 04:02:20;;;;;;;0.20;0.20;;;16.20;47.20;;;;;;5148360;27;46684;-62
2024/01/02 04:04:47;;;;;;;0.10;0.10;;;16.10;47.20;;;;;;5148343;27;45347;-64
2024/01/02 04:07:15;;;;;;;0.10;0.10;;;16.10;47.30;;;;;;5148493;27;45236;-64
2024/01/02 04:09:42;;;;;;;0.15;0.15;;;16.10;47.30;;;;;;5148873;27;45446;-63
2024/01/02 04:12:09;;;;;;;0.30;0.20;;;16.20;47.30;;;;;;5148393;27;45495;-62
2024/01/02 04:14:36;;;;;;;0.10;0.10;;;16.20;47.20;;;;;;5148401;27;45390;-63
2024/01/02 04:17:03;;;;;;;0.05;0.05;;;16.30;47.20;;;;;;5148749;27;45338;-63
2024/01/02 04:19:30;;;;;;;0.13;0.10;;;16.30;47.00;;;;;;5148743;27;45443;-64
2024/01/02 04:21:57;;;;;;;0.20;0.20;;;16.40;46.90;;;;;;5147725;27;46388;-63
2024/01/02 04:24:25;;;;;;;0.10;0.10;;;16.50;46.80;;;;;;5147953;27;45333;-65
2024/01/02 04:26:53;;;;;;;0.10;0.10;;;16.60;46.60;;;;;;5148422;27;45289;-63
2024/01/02 04:29:19;;;;;;;0.10;0.10;;;16.70;46.40;;;;;;5148470;27;45474;-64
2024/01/02 04:31:46;;;;;;;0.00;0.00;;;16.80;46.20;;;;;;5148172;27;46293;-63
2024/01/02 04:34:13;;;;;;;0.10;0.10;;;16.90;46.00;;;;;;5148338;27;45467;-63
2024/01/02 04:36:41;;;;;;;0.20;0.20;;;17.00;45.90;;;;;;5147951;27;45423;-62
2024/01/02 04:39:08;;;;;;;0.00;0.00;;;17.10;45.60;;;;;;5148317;27;45417;-62
2024/01/02 04:41:36;;;;;;;0.20;0.20;;;17.20;45.50;;;;;;5185764;27;47752;-65
2024/01/02 04:44:03;;;;;;;0.10;0.10;;;17.30;45.30;;;;;;5189905;27;45468;-63
2024/01/02 04:46:30;;;;;;;0.10;0.10;;;17.40;45.10;;;;;;5189986;27;45431;-64
2024/01/02 04:48:57;;;;;;;0.00;0.00;;;17.50;45.00;;;;;;5189942;27;45352;-63
2024/01/02 04:51:24;;;;;;;0.20;0.20;;;17.50;44.80;;;;;;5189323;27;46393;-62
2024/01/02 04:53:51;;;;;;;0.20;0.20;;;17.60;44.70;;;;;;5189857;27;45306;-63
2024/01/02 04:56:17;;;;;;;0.20;0.20;;;17.70;44.60;;;;;;5190064;27;45426;-63
2024/01/02 04:58:46;;;;;;;0.00;0.00;;;17.80;44.50;;;;;;5190162;27;45459;-63
2024/01/02 05:01:12;;;;;;;0.15;0.15;;;17.80;44.40;;;;;;5189781;27;46791;-64
2024/01/02 05:03:39;;;;;;;0.20;0.20;;;17.90;44.30;;;;;;5189542;27;45209;-63
2024/01/02 05:06:06;;;;;;;0.00;0.00;;;17.90;44.20;;;;;;5189841;27;45207;-64
2024/01/02 05:08:34;;;;;;;0.10;0.10;;;18.00;44.00;;;;;;5190249;27;45540;-64
2024/01/02 05:11:00;;;;;;;0.03;0.03;;;18.10;44.00;;;;;;5189636;27;45310;-64
2024/01/02 05:13:27;;;;;;;0.10;0.10;;;18.10;44.00;;;;;;5174712;27;46213;-64
2024/01/02 05:15:55;;;;;;;0.20;0.20;;;18.10;43.90;;;;;;5168903;27;45365;-64
2024/01/02 05:18:23;;;;;;;0.10;0.10;;;18.20;43.80;;;;;;5168717;27;45478;-64
2024/01/02 05:20:50;;;;;;;0.10;0.10;;;18.20;43.70;;;;;;5168460;27;45396;-64
2024/01/02 05:23:16;;;;;;;0.10;0.10;;;18.20;44.30;;;;;;5174512;27;45308;-63
2024/01/02 05:25:42;;;;;;;0.10;0.10;;;18.30;44.30;;;;;;5189704;27;45314;-63
2024/01/02 05:28:09;;;;;;;0.10;0.10;;;18.30;43.60;;;;;;5189845;27;45133;-64
2024/01/02 05:30:36;;;;;;;0.10;0.10;;;18.40;43.60;;;;;;5189511;27;45336;-63
2024/01/02 05:33:05;;;;;;;0.10;0.10;;;18.30;43.50;;;;;;5189364;27;45318;-63
2024/01/02 05:35:32;;;;;;;0.10;0.10;;;18.40;43.50;;;;;;5189372;27;45503;-64
2024/01/02 05:37:59;;;;;;;0.20;0.10;;;18.40;43.40;;;;;;5189487;27;45354;-63
2024/01/02 05:40:26;;;;;;;0.10;0.10;;;18.50;43.40;;;;;;5189013;27;45462;-63
2024/01/02 05:42:53;;;;;;;0.10;0.08;;;18.50;43.40;;;;;;5189411;27;45361;-64
2024/01/02 05:45:20;;;;;;;0.30;0.20;;;18.50;43.30;;;;;;5189239;27;45366;-64
2024/01/02 05:47:47;;;;;;;0.13;0.10;;;18.50;43.30;;;;;;5189308;27;45434;-64
2024/01/02 05:50:15;;;;;;;0.10;0.10;;;18.50;43.20;;;;;;5189265;27;45456;-64
2024/01/02 05:52:43;;;;;;;0.10;0.10;;;18.60;43.30;;;;;;5189309;27;45396;-63
2024/01/02 05:55:10;;;;;;;0.65;0.20;;;18.60;43.20;;;;;;5189361;27;45382;-64
2024/01/02 05:57:37;;;;;;;0.00;0.00;;;18.60;43.20;;;;;;5189537;27;45412;-63
2024/01/02 06:00:05;;;;;;;0.13;0.13;;;18.60;43.20;;;;;;5188997;27;46741;-63
2024/01/02 06:02:32;;;;;;;0.08;0.08;;;18.60;43.20;;;;;;5192214;27;45214;-63
2024/01/02 06:04:59;;;;;;;0.00;0.00;;;18.60;43.20;;;;;;5192992;27;45335;-63
2024/01/02 06:07:27;;;;;;;0.00;0.00;;;18.60;43.20;;;;;;5192992;27;45354;-63
2024/01/02 06:09:54;;;;;;;0.10;0.05;;;18.70;43.20;;;;;;5192554;27;46363;-65
2024/01/02 06:12:21;;;;;;;0.10;0.10;;;18.70;43.10;;;;;;5189456;27;45312;-64
2024/01/02 06:14:48;;;;;;;0.00;0.00;;;18.70;43.10;;;;;;5169885;27;45375;-64
2024/01/02 06:17:15;;;;;;;0.05;0.05;;;18.70;43.10;;;;;;5171674;27;45375;-63
2024/01/02 06:19:42;;;;;;;0.00;0.00;;;18.80;43.10;;;;;;5171538;27;45401;-64
2024/01/02 06:22:09;;;;;;;0.10;0.10;;;18.70;43.70;;;;;;5171049;27;45341;-64
2024/01/02 06:24:37;;;;;;;0.10;0.10;;;18.70;43.70;;;;;;5189050;27;45285;-63
2024/01/02 06:27:04;;;;;;;0.00;0.00;;;18.80;43.10;;;;;;5192659;27;45318;-64
2024/01/02 06:29:31;;;;;;;0.50;0.10;;;18.80;43.10;;;;;;5192244;27;45460;-64
2024/01/02 06:31:58;;;;;;;0.10;0.10;;;18.80;43.10;;;;;;5192303;27;45308;-63
2024/01/02 06:34:25;;;;;;;0.00;0.00;;;18.80;43.20;;;;;;5192392;27;45336;-63
2024/01/02 06:36:52;;;;;;;0.30;0.10;;;18.70;43.10;;;;;;5192444;27;45404;-64
2024/01/02 06:39:19;;;;;;;0.00;0.00;;;18.80;43.10;;;;;;5192039;27;46358;-63
2024/01/02 06:41:47;;;;;;;0.10;0.10;;;18.80;43.10;;;;;;5192211;27;45399;-63
2024/01/02 06:44:14;;;;;;;0.10;0.00;;;18.80;43.10;;;;;;5192179;27;45321;-63
2024/01/02 06:46:41;;;;;;;0.00;0.00;;;18.80;43.10;;;;;;5192350;27;45317;-63
2024/01/02 06:49:08;;;;;;;0.10;0.10;;;18.80;43.10;;;;;;5191915;27;46381;-65
2024/01/02 06:51:35;;;;;;;0.95;0.00;;;18.80;43.10;;;;;;5192297;27;45416;-65
2024/01/02 06:54:02;;;;;;;0.00;0.00;;;18.80;43.10;;;;;;5192115;27;45376;-63
2024/01/02 06:56:29;;;;;;;0.00;0.00;;;18.80;43.10;;;;;;5192180;27;45040;-64
2024/01/02 06:58:58;;;;;;;0.08;0.08;;;18.90;43.10;;;;;;5191583;27;45279;-64
2024/01/02 07:01:24;;;;;;;0.10;0.10;;;18.80;43.10;;;;;;5191793;27;45379;-63
2024/01/02 07:03:51;;;;;;;0.00;0.00;;;18.80;43.10;;;;;;5192094;27;45378;-63
2024/01/02 07:06:18;;;;;;;0.00;0.00;;;18.80;43.10;;;;;;5191993;27;45320;-63
2024/01/02 07:08:45;;;;;;;0.00;0.00;;;18.90;43.10;;;;;;5191483;27;46371;-64
2024/01/02 07:11:12;;;;;;;0.00;0.00;;;18.90;43.10;;;;;;5191613;27;45378;-64
2024/01/02 07:13:39;;;;;;;0.03;0.03;;;18.90;43.10;;;;;;5173927;27;45384;-63
2024/01/02 07:16:08;;;;;;;0.00;0.00;;;18.90;43.10;;;;;;5170161;27;45453;-64
2024/01/02 07:18:35;;;;;;;0.43;0.20;;;18.90;43.10;;;;;;5167617;27;46168;-64
2024/01/02 07:21:02;;;;;;;0.03;0.03;;;18.90;43.10;;;;;;5170332;27;45257;-64
2024/01/02 07:23:29;;;;;;;0.25;0.05;;;18.90;43.10;;;;;;5178226;27;45407;-65
2024/01/02 07:25:56;;;;;;;0.00;0.00;;;18.90;43.10;;;;;;5191516;27;45486;-64
2024/01/02 07:28:23;;;;;;;0.05;0.05;;;18.90;43.10;;;;;;5191132;27;47504;-64
2024/01/02 07:30:50;;;;;;;0.00;0.00;;;18.90;43.10;;;;;;5191323;27;45327;-63
2024/01/02 07:33:19;;;;;;;0.00;0.00;;;18.90;43.10;;;;;;5191492;27;45345;-64
2024/01/02 07:35:46;;;;;;;0.00;0.00;;;18.90;43.10;;;;;;5191401;27;45417;-64
2024/01/02 07:38:13;;;;;;;0.10;0.10;;;18.90;43.10;;;;;;5190893;27;45480;-65
2024/01/02 07:40:40;;;;;;;0.00;0.00;;;18.90;43.10;;;;;;5191034;27;45581;-64
2024/01/02 07:43:07;;;;;;;0.00;0.00;;;18.90;43.10;;;;;;5191398;27;45192;-64
2024/01/02 07:45:34;;;;;;;0.17;0.00;;;18.90;43.10;;;;;;5191127;27;45399;-64
2024/01/02 07:48:00;;;;;;;0.52;0.20;;;18.90;43.10;;;;;;5190854;27;46324;-64
2024/01/02 07:50:29;;;;;;;0.00;0.00;;;18.90;43.10;;;;;;5191035;27;45359;-63
2024/01/02 07:52:55;;;;;;;0.17;0.10;;;18.90;43.20;;;;;;5191065;27;45258;-63
2024/01/02 07:55:22;;;;;;;0.30;0.15;;;18.90;43.10;;;;;;5191020;27;45336;-64
2024/01/02 07:57:49;;;;;;;0.00;0.00;;;18.90;43.20;;;;;;5190715;27;46193;-64
2024/01/02 08:00:17;;;;;;;0.00;0.00;;;18.90;43.20;;;;;;5190840;27;45381;-64
2024/01/02 08:02:44;;;;;;;0.40;0.00;;;18.90;43.80;;;;;;5191003;27;45325;-64
2024/01/02 08:05:11;;;;;;;0.28;0.20;;;18.90;43.20;;;;;;5191146;27;45402;-63
2024/01/02 08:07:39;;;;;;;0.00;0.00;;;18.90;43.20;;;;;;5190488;27;46136;-63
2024/01/02 08:10:08;;;;;;;0.10;0.10;;;18.90;43.20;;;;;;5190751;27;45417;-63
2024/01/02 08:12:35;;;;;;;0.00;0.00;;;18.90;43.20;;;;;;5183596;27;45322;-63
2024/01/02 08:15:02;;;;;;;0.00;0.00;;;18.90;43.50;;;;;;5158303;27;45360;-63
2024/01/02 08:17:29;;;;;;;0.10;0.10;;;18.90;43.20;;;;;;5169111;27;45255;-62
2024/01/02 08:19:56;;;;;;;0.10;0.10;;;18.90;43.20;;;;;;5169137;27;45389;-62
2024/01/02 08:22:23;;;;;;;0.00;0.00;;;18.90;43.20;;;;;;5169343;27;45198;-62
2024/01/02 08:24:51;;;;;;;2.72;0.10;;;18.90;43.30;;;;;;5188827;27;45255;-63
2024/01/02 08:27:19;;;;;;;0.13;0.13;;;18.90;43.30;;;;;;5190045;27;46368;-63
2024/01/02 08:29:45;;;;;;;0.22;0.05;;;18.90;43.30;;;;;;5190380;27;45351;-64
2024/01/02 08:32:12;;;;;;;0.65;0.10;;;18.90;43.30;;;;;;5190412;27;45244;-63
2024/01/02 08:34:39;;;;;;;0.10;0.00;;;18.90;43.30;;;;;;5190343;27;45411;-62
2024/01/02 08:37:06;;;;;;;0.10;0.10;;;18.90;43.30;;;;;;5189884;27;45261;-63
2024/01/02 08:39:33;;;;;;;0.10;0.10;;;18.90;43.30;;;;;;5189751;27;45351;-62
2024/01/02 08:42:02;;;;;;;0.10;0.10;;;18.90;43.40;;;;;;5190120;27;45381;-62
2024/01/02 08:44:29;;;;;;;0.00;0.00;;;18.90;43.30;;;;;;5190349;27;45345;-62
2024/01/02 08:46:56;;;;;;;0.10;0.10;;;18.90;43.30;;;;;;5189773;27;46382;-64
2024/01/02 08:49:22;;;;;;;0.00;0.00;;;18.90;43.30;;;;;;5189980;27;45274;-62
2024/01/02 08:51:49;;;;;;;0.20;0.10;;;18.90;43.30;;;;;;5187237;27;45311;-61
2024/01/02 08:54:16;;;;;;;0.00;0.00;;;18.90;43.40;;;;;;5190120;27;45330;-62
2024/01/02 08:56:43;;;;;;;0.43;0.17;;;18.90;43.40;;;;;;5189403;27;45296;-62
2024/01/02 08:59:11;;;;;;;0.55;0.10;;;19.00;43.40;;;;;;5189790;27;45346;-62
2024/01/02 09:01:38;;;;;;;0.15;0.10;;;18.90;43.30;;;;;;5187085;27;45257;-64
2024/01/02 09:04:05;;;;;;;0.10;0.10;;;19.00;43.30;;;;;;5189856;27;45470;-62
2024/01/02 09:06:32;;;;;;;0.10;0.10;;;19.00;43.40;;;;;;5189465;27;45481;-64
2024/01/02 09:08:58;;;;;;;0.40;0.10;;;18.90;43.40;;;;;;5189655;27;45487;-63
2024/01/02 09:11:25;;;;;;;0.52;0.08;;;18.90;43.40;;;;;;5189771;27;45341;-64
2024/01/02 09:13:52;;;;;;;0.38;0.15;;;19.00;43.40;;;;;;5170771;27;45361;-63
2024/01/02 09:16:20;;;;;;;0.52;0.10;;;19.00;43.40;;;;;;5168010;27;45319;-63
2024/01/02 09:18:47;;;;;;;0.20;0.20;;;19.00;43.40;;;;;;5168163;27;45475;-62
2024/01/02 09:21:14;;;;;;;0.10;0.10;;;19.00;43.40;;;;;;5168252;27;45372;-63
2024/01/02 09:23:41;;;;;;;0.10;0.10;;;18.90;43.40;;;;;;5178141;27;45477;-63
2024/01/02 09:26:08;;;;;;;0.60;0.20;;;19.00;43.40;;;;;;5189035;27;45305;-62
2024/01/02 09:28:35;;;;;;;0.90;0.15;;;19.00;43.40;;;;;;5189278;27;45475;-63
2024/01/02 09:31:03;;;;;;;0.00;0.00;;;19.00;43.40;;;;;;5189638;27;45336;-62
2024/01/02 09:33:31;;;;;;;0.60;0.10;;;19.00;43.30;;;;;;5189659;27;45394;-63
2024/01/02 09:35:58;;;;;;;0.20;0.00;;;19.10;43.40;;;;;;5189323;27;46601;-64
2024/01/02 09:38:25;;;;;;;0.03;0.03;;;19.10;43.30;;;;;;5193003;27;45628;-62
2024/01/02 09:41:06;;;;;;;0.50;0.00;;;19.10;43.20;;;;;;5192766;27;45493;-63
2024/01/02 09:43:36;;;;;;;0.28;0.10;;;19.10;43.20;;;;;;5192485;27;45227;-63
2024/01/02 09:46:06;;;;;;;0.10;0.10;;;19.10;43.20;;;;;;5167517;27;46545;-63
2024/01/02 09:48:40;;;;;;;0.17;0.17;;;19.20;43.30;;;;;;5167705;27;45340;-64
2024/01/02 09:51:09;;;;;;;0.10;0.10;;;19.20;43.30;;;;;;5163111;27;45321;-64
2024/01/02 09:53:57;;;;;;;0.10;0.10;;;19.20;43.30;;;;;;5152663;27;45519;-62
2024/01/02 09:56:26;;;;;;;0.93;0.30;;;19.10;43.30;;;;;;5147473;27;45373;-62
2024/01/02 09:58:58;;;;;;;0.55;0.15;;;19.10;43.30;;;;;;5158494;27;45443;-63
2024/01/02 10:01:28;;;;;;;0.82;0.15;;;19.20;43.30;;;;;;5168998;27;45364;-63
2024/01/02 10:04:14;;;;;;;0.38;0.10;;;19.20;43.30;;;;;;5158266;27;45437;-62
2024/01/02 10:06:49;;;;;;;0.15;0.10;;;19.20;43.40;;;;;;5171136;27;47267;-62
2024/01/02 10:09:37;;;;;;;0.75;0.30;;;19.20;43.40;;;;;;5154915;27;45362;-62
2024/01/02 10:12:11;;;;;;;0.17;0.10;;;19.20;44.00;;;;;;5150270;27;45261;-62
2024/01/02 10:14:42;;;;;;;0.17;0.10;;;19.30;43.50;;;;;;5150264;27;45440;-64
2024/01/02 10:17:14;;;;;;;3.38;0.25;;;19.20;43.40;;;;;;5162532;27;45244;-62
2024/01/02 10:19:46;;;;;;;0.32;0.13;;;19.30;43.50;;;;;;5166507;27;45384;-61
2024/01/02 10:22:21;;;;;;;0.43;0.10;;;19.30;43.50;;;;;;5159411;27;45368;-64
2024/01/02 10:24:51;;;;;;;0.00;0.00;;;19.30;43.50;;;;;;5151456;27;45277;-62
2024/01/02 10:27:22;;;;;;;0.20;0.20;;;19.30;43.50;;;;;;5157904;27;45334;-62
2024/01/02 10:29:59;;;;;;;0.10;0.10;;;19.30;43.50;;;;;;5159220;27;45373;-61
2024/01/02 10:32:29;;;;;;;0.10;0.10;;;19.30;43.50;;;;;;5170552;27;45377;-62
2024/01/02 10:35:04;;;;;;;2.17;0.10;;;19.30;44.20;;;;;;5151798;27;45371;-62
2024/01/02 10:37:30;;;;;;;0.22;0.13;;;19.30;43.50;;;;;;5149638;27;47490;-62
2024/01/02 10:40:01;;;;;;;0.20;0.10;;;19.30;43.50;;;;;;5149464;27;45235;-61
2024/01/02 10:42:33;;;;;;;0.75;0.25;;;19.30;43.50;;;;;;5150070;27;45252;-62
2024/01/02 10:45:07;;;;;;;0.30;0.20;;;19.30;43.50;;;;;;5149984;27;45254;-63
2024/01/02 10:47:38;;;;;;;0.22;0.20;;;19.30;43.50;;;;;;5149545;27;46466;-64
2024/01/02 10:50:07;;;;;;;0.10;0.10;;;19.30;43.60;;;;;;5149693;27;45374;-63
2024/01/02 10:52:37;;;;;;;0.47;0.32;;;19.30;43.60;;;;;;5147033;27;45413;-65
2024/01/02 10:55:07;;;;;;;0.20;0.10;;;19.30;43.60;;;;;;5150077;27;45485;-64
2024/01/02 10:57:39;;;;;;;1.20;0.10;;;19.30;43.60;;;;;;5149414;27;47330;-62
2024/01/02 11:00:09;;;;;;;0.10;0.10;;;19.30;43.60;;;;;;5149371;27;45397;-63
2024/01/02 11:02:41;;;;;;;0.30;0.20;;;19.30;43.60;;;;;;5149558;27;45276;-63
2024/01/02 11:05:12;;;;;;;0.60;0.20;;;19.30;43.60;;;;;;5149170;27;45597;-63
2024/01/02 11:07:41;;;;;;;1.55;0.45;;;19.30;43.60;;;;;;5148686;27;46462;-64
2024/01/02 11:10:09;;;;;;;2.58;0.35;;;19.30;43.60;;;;;;5149249;27;45774;-63
2024/01/02 11:12:40;;;;;;;0.50;0.20;;;19.30;43.60;;;;;;5149132;27;45309;-63
2024/01/02 11:15:11;;;;;;;2.33;0.35;;;19.30;43.70;;;;;;5149364;27;45448;-63
2024/01/02 11:17:39;;;;;;;5.65;0.50;;;19.30;43.70;;;;;;5148828;27;47585;-63
2024/01/02 11:20:10;;;;;;;1.88;0.43;;;19.30;43.80;;;;;;5148936;27;45289;-63
2024/01/02 11:22:44;;;;;;;0.40;0.20;;;19.30;43.80;;;;;;5156235;27;45317;-64
2024/01/02 11:25:11;;;;;;;0.47;0.38;;;19.30;43.70;;;;;;5170240;27;45367;-63
2024/01/02 11:27:38;;;;;;;5.68;0.65;;;19.30;43.70;;;;;;5169691;27;46368;-64
2024/01/02 11:30:07;;;;;;;0.40;0.35;;;19.30;43.70;;;;;;5169768;27;45259;-64
2024/01/02 11:32:39;;;;;;;1.10;0.52;;;19.30;43.70;;;;;;5169786;27;45380;-62
2024/01/02 11:35:07;;;;;;;0.90;0.32;;;19.40;43.70;;;;;;5169802;27;45454;-63
2024/01/02 11:37:35;;;;;;;0.90;0.30;;;19.30;43.70;;;;;;5169265;27;47116;-65
2024/01/02 11:40:17;;;;;;;1.40;0.40;;;19.30;43.80;;;;;;5169207;27;45431;-63
2024/01/02 11:42:58;;;;;;;0.60;0.40;;;19.40;43.80;;;;;;5169678;27;45368;-63
2024/01/02 11:45:26;;;;;;;1.30;0.43;;;19.30;43.70;;;;;;5169724;27;45590;-63
2024/01/02 11:47:58;;;;;;;1.38;0.45;;;19.40;43.70;;;;;;5169709;27;46446;-63
2024/01/02 11:50:30;;;;;;;2.90;0.60;;;19.40;43.80;;;;;;5169477;27;45318;-65
2024/01/02 11:52:59;;;;;;;1.25;0.50;;;19.30;43.70;;;;;;5169503;27;45259;-64
2024/01/02 11:55:46;;;;;;;1.63;0.55;;;19.30;43.70;;;;;;5169605;27;45372;-63
2024/01/02 11:58:20;;;;;;;1.00;0.65;;;19.40;43.80;;;;;;5168512;27;45381;-63
2024/01/02 12:00:52;;;;;;;3.30;0.80;;;19.40;43.80;;;;;;5169102;27;45436;-64
2024/01/02 12:03:27;;;;;;;2.35;0.80;;;19.40;43.80;;;;;;5169301;27;45423;-63
2024/01/02 12:06:04;;;;;;;1.23;0.90;;;19.40;43.70;;;;;;5169419;27;45338;-63
2024/01/02 12:08:31;;;;;;;1.10;0.70;;;19.40;43.80;;;;;;5169085;27;47519;-64
2024/01/02 12:11:04;;;;;;;2.03;0.95;;;19.40;43.80;;;;;;5169063;27;45368;-63
2024/01/02 12:13:33;;;;;;;0.82;0.68;;;19.40;43.70;;;;;;5157558;27;45398;-63
2024/01/02 12:16:01;;;;;;;2.33;0.80;;;19.50;43.70;;;;;;5148198;27;45634;-63
2024/01/02 12:18:30;;;;;;;0.93;0.70;;;19.50;43.70;;;;;;5148060;27;46659;-63
2024/01/02 12:20:59;;;;;;;1.67;0.88;;;19.50;43.70;;;;;;5148134;27;45315;-64
2024/01/02 12:23:25;;;;;;;1.77;0.77;;;19.50;43.60;;;;;;5161836;27;45451;-63
2024/01/02 12:25:56;;;;;;;0.65;0.65;;;19.50;43.60;;;;;;5169068;27;45355;-63
2024/01/02 12:28:25;;;;;;;0.90;0.75;;;19.50;43.70;;;;;;5168800;27;47300;-63
2024/01/02 12:30:56;;;;;;;1.02;0.70;;;19.50;43.70;;;;;;5168963;27;45299;-63
2024/01/02 12:33:28;;;;;;;0.80;0.70;;;19.50;43.70;;;;;;5168675;27;45391;-63
2024/01/02 12:36:08;;;;;;;1.30;0.73;;;19.50;43.60;;;;;;5168628;27;45351;-63
2024/01/02 12:38:45;;;;;;;1.48;0.90;;;19.50;43.60;;;;;;5168397;27;46621;-63
2024/01/02 12:41:12;;;;;;;1.90;0.77;;;19.50;43.60;;;;;;5168266;27;45318;-63
2024/01/02 12:43:40;;;;;;;0.80;0.80;;;19.50;43.60;;;;;;5168849;27;45304;-63
2024/01/02 12:46:10;;;;;;;1.60;0.75;;;19.50;43.60;;;;;;5168484;27;45361;-63
2024/01/02 12:48:41;;;;;;;1.35;0.73;;;19.50;43.60;;;;;;5168584;27;45388;-63
2024/01/02 12:51:07;;;;;;;0.65;0.60;;;19.50;43.60;;;;;;5168382;27;45410;-63
2024/01/02 12:53:35;;;;;;;0.73;0.73;;;19.50;43.70;;;;;;5168556;27;45406;-63